sensor_id;sensor_type;location;lat;lon;timestamp;P1;durP1;ratioP1;P2;durP2;ratioP2
4047;SDS011;2038;51.728;6.674;2022-11-23T00:01:19;6.20;;;3.57;;
4047;SDS011;2038;51.728;6.674;2022-11-23T00:03:51;9.67;;;4.13;;
4047;SDS011;2038;51.728;6.674;2022-11-23T00:06:21;10.17;;;4.30;;
4047;SDS011;2038;51.728;6.674;2022-11-23T00:08:49;8.43;;;3.60;;
4047;SDS011;2038;51.728;6.674;2022-11-23T00:11:16;9.70;;;4.03;;
4047;SDS011;2038;51.728;6.674;2022-11-23T00:13:46;10.03;;;5.30;;
4047;SDS011;2038;51.728;6.674;2022-11-23T00:16:13;19.53;;;4.57;;
4047;SDS011;2038;51.728;6.674;2022-11-23T00:18:43;6.10;;;3.97;;
4047;SDS011;2038;51.728;6.674;2022-11-23T00:21:13;7.27;;;3.40;;
4047;SDS011;2038;51.728;6.674;2022-11-23T00:23:42;9.47;;;4.40;;
4047;SDS011;2038;51.728;6.674;2022-11-23T00:26:09;11.40;;;3.60;;
4047;SDS011;2038;51.728;6.674;2022-11-23T00:28:37;10.40;;;4.23;;
4047;SDS011;2038;51.728;6.674;2022-11-23T00:31:08;9.17;;;4.67;;
4047;SDS011;2038;51.728;6.674;2022-11-23T00:33:37;9.70;;;4.90;;
4047;SDS011;2038;51.728;6.674;2022-11-23T00:36:09;7.33;;;3.50;;
4047;SDS011;2038;51.728;6.674;2022-11-23T00:38:39;8.10;;;4.13;;
4047;SDS011;2038;51.728;6.674;2022-11-23T00:41:11;8.73;;;3.17;;
4047;SDS011;2038;51.728;6.674;2022-11-23T00:43:42;8.90;;;4.70;;
4047;SDS011;2038;51.728;6.674;2022-11-23T00:46:13;10.67;;;4.27;;
4047;SDS011;2038;51.728;6.674;2022-11-23T00:48:49;11.20;;;5.37;;
4047;SDS011;2038;51.728;6.674;2022-11-23T00:51:21;13.70;;;4.70;;
4047;SDS011;2038;51.728;6.674;2022-11-23T00:54:01;6.70;;;3.57;;
4047;SDS011;2038;51.728;6.674;2022-11-23T00:56:29;10.57;;;4.07;;
4047;SDS011;2038;51.728;6.674;2022-11-23T00:58:58;11.47;;;3.77;;
4047;SDS011;2038;51.728;6.674;2022-11-23T01:01:28;7.10;;;3.73;;
4047;SDS011;2038;51.728;6.674;2022-11-23T01:03:59;7.37;;;4.10;;
4047;SDS011;2038;51.728;6.674;2022-11-23T01:06:29;10.90;;;4.33;;
4047;SDS011;2038;51.728;6.674;2022-11-23T01:09:22;7.27;;;3.83;;
4047;SDS011;2038;51.728;6.674;2022-11-23T01:11:54;9.90;;;4.90;;
4047;SDS011;2038;51.728;6.674;2022-11-23T01:14:22;12.60;;;4.60;;
4047;SDS011;2038;51.728;6.674;2022-11-23T01:16:52;8.57;;;3.97;;
4047;SDS011;2038;51.728;6.674;2022-11-23T01:19:18;9.00;;;3.97;;
4047;SDS011;2038;51.728;6.674;2022-11-23T01:21:45;8.30;;;4.30;;
4047;SDS011;2038;51.728;6.674;2022-11-23T01:24:15;12.13;;;5.43;;
4047;SDS011;2038;51.728;6.674;2022-11-23T01:26:45;16.63;;;4.63;;
4047;SDS011;2038;51.728;6.674;2022-11-23T01:29:16;8.27;;;4.33;;
4047;SDS011;2038;51.728;6.674;2022-11-23T01:31:48;8.47;;;4.53;;
4047;SDS011;2038;51.728;6.674;2022-11-23T01:34:14;11.07;;;5.03;;
4047;SDS011;2038;51.728;6.674;2022-11-23T01:36:41;8.43;;;4.07;;
4047;SDS011;2038;51.728;6.674;2022-11-23T01:39:09;10.83;;;4.60;;
4047;SDS011;2038;51.728;6.674;2022-11-23T01:41:37;10.80;;;4.30;;
4047;SDS011;2038;51.728;6.674;2022-11-23T01:46:58;10.97;;;5.00;;
4047;SDS011;2038;51.728;6.674;2022-11-23T01:49:42;9.50;;;4.90;;
4047;SDS011;2038;51.728;6.674;2022-11-23T01:52:16;15.47;;;5.03;;
4047;SDS011;2038;51.728;6.674;2022-11-23T01:54:51;8.30;;;4.70;;
4047;SDS011;2038;51.728;6.674;2022-11-23T01:57:23;10.80;;;4.17;;
4047;SDS011;2038;51.728;6.674;2022-11-23T02:00:03;10.50;;;3.93;;
4047;SDS011;2038;51.728;6.674;2022-11-23T02:02:30;7.57;;;3.90;;
4047;SDS011;2038;51.728;6.674;2022-11-23T02:05:00;12.87;;;4.40;;
4047;SDS011;2038;51.728;6.674;2022-11-23T02:07:27;9.20;;;4.03;;
4047;SDS011;2038;51.728;6.674;2022-11-23T02:09:55;9.83;;;3.90;;
4047;SDS011;2038;51.728;6.674;2022-11-23T02:12:21;8.60;;;3.77;;
4047;SDS011;2038;51.728;6.674;2022-11-23T02:14:48;9.27;;;3.60;;
4047;SDS011;2038;51.728;6.674;2022-11-23T02:17:14;8.03;;;3.80;;
4047;SDS011;2038;51.728;6.674;2022-11-23T02:19:52;5.80;;;3.40;;
4047;SDS011;2038;51.728;6.674;2022-11-23T02:22:39;18.03;;;3.60;;
4047;SDS011;2038;51.728;6.674;2022-11-23T02:25:32;11.40;;;4.27;;
4047;SDS011;2038;51.728;6.674;2022-11-23T02:28:18;12.23;;;3.57;;
4047;SDS011;2038;51.728;6.674;2022-11-23T02:30:52;10.00;;;3.33;;
4047;SDS011;2038;51.728;6.674;2022-11-23T02:33:19;7.10;;;3.83;;
4047;SDS011;2038;51.728;6.674;2022-11-23T02:35:49;10.73;;;3.47;;
4047;SDS011;2038;51.728;6.674;2022-11-23T02:38:19;12.10;;;3.10;;
4047;SDS011;2038;51.728;6.674;2022-11-23T02:40:47;12.83;;;3.23;;
4047;SDS011;2038;51.728;6.674;2022-11-23T02:43:13;10.53;;;3.00;;
4047;SDS011;2038;51.728;6.674;2022-11-23T02:48:17;11.30;;;3.50;;
4047;SDS011;2038;51.728;6.674;2022-11-23T02:50:44;10.47;;;3.17;;
4047;SDS011;2038;51.728;6.674;2022-11-23T02:53:10;5.50;;;3.07;;
4047;SDS011;2038;51.728;6.674;2022-11-23T02:55:37;9.17;;;2.70;;
4047;SDS011;2038;51.728;6.674;2022-11-23T02:58:04;9.03;;;2.57;;
4047;SDS011;2038;51.728;6.674;2022-11-23T03:00:31;19.70;;;3.57;;
4047;SDS011;2038;51.728;6.674;2022-11-23T03:02:59;11.33;;;2.80;;
4047;SDS011;2038;51.728;6.674;2022-11-23T03:05:26;8.67;;;3.40;;
4047;SDS011;2038;51.728;6.674;2022-11-23T03:07:53;7.23;;;3.17;;
4047;SDS011;2038;51.728;6.674;2022-11-23T03:10:19;5.03;;;3.00;;
4047;SDS011;2038;51.728;6.674;2022-11-23T03:12:46;10.57;;;3.23;;
4047;SDS011;2038;51.728;6.674;2022-11-23T03:15:12;4.10;;;2.50;;
4047;SDS011;2038;51.728;6.674;2022-11-23T03:17:38;10.93;;;4.37;;
4047;SDS011;2038;51.728;6.674;2022-11-23T03:20:04;8.80;;;2.93;;
4047;SDS011;2038;51.728;6.674;2022-11-23T03:22:32;12.60;;;3.10;;
4047;SDS011;2038;51.728;6.674;2022-11-23T03:24:58;4.80;;;2.97;;
4047;SDS011;2038;51.728;6.674;2022-11-23T03:27:24;8.60;;;3.00;;
4047;SDS011;2038;51.728;6.674;2022-11-23T03:29:51;8.97;;;3.00;;
4047;SDS011;2038;51.728;6.674;2022-11-23T03:32:17;12.37;;;3.97;;
4047;SDS011;2038;51.728;6.674;2022-11-23T03:34:43;10.57;;;2.97;;
4047;SDS011;2038;51.728;6.674;2022-11-23T03:37:09;11.43;;;4.27;;
4047;SDS011;2038;51.728;6.674;2022-11-23T03:39:36;5.43;;;2.83;;
4047;SDS011;2038;51.728;6.674;2022-11-23T03:42:02;6.27;;;3.40;;
4047;SDS011;2038;51.728;6.674;2022-11-23T03:44:28;10.93;;;3.53;;
4047;SDS011;2038;51.728;6.674;2022-11-23T03:46:55;7.53;;;3.43;;
4047;SDS011;2038;51.728;6.674;2022-11-23T03:49:21;17.07;;;4.70;;
4047;SDS011;2038;51.728;6.674;2022-11-23T03:51:47;7.03;;;3.53;;
4047;SDS011;2038;51.728;6.674;2022-11-23T03:54:13;7.60;;;3.67;;
4047;SDS011;2038;51.728;6.674;2022-11-23T03:56:39;10.17;;;3.87;;
4047;SDS011;2038;51.728;6.674;2022-11-23T03:59:06;5.50;;;3.83;;
4047;SDS011;2038;51.728;6.674;2022-11-23T04:01:32;11.63;;;3.70;;
4047;SDS011;2038;51.728;6.674;2022-11-23T04:03:58;17.63;;;4.50;;
4047;SDS011;2038;51.728;6.674;2022-11-23T04:06:24;9.70;;;3.40;;
4047;SDS011;2038;51.728;6.674;2022-11-23T04:08:51;7.13;;;2.87;;
4047;SDS011;2038;51.728;6.674;2022-11-23T04:11:17;15.90;;;5.23;;
4047;SDS011;2038;51.728;6.674;2022-11-23T04:13:43;9.33;;;3.20;;
4047;SDS011;2038;51.728;6.674;2022-11-23T04:16:12;8.17;;;4.03;;
4047;SDS011;2038;51.728;6.674;2022-11-23T04:18:38;5.90;;;3.50;;
4047;SDS011;2038;51.728;6.674;2022-11-23T04:21:04;9.47;;;4.07;;
4047;SDS011;2038;51.728;6.674;2022-11-23T04:23:31;6.23;;;3.20;;
4047;SDS011;2038;51.728;6.674;2022-11-23T04:25:57;13.13;;;3.60;;
4047;SDS011;2038;51.728;6.674;2022-11-23T04:28:23;13.50;;;3.57;;
4047;SDS011;2038;51.728;6.674;2022-11-23T04:30:49;10.13;;;3.20;;
4047;SDS011;2038;51.728;6.674;2022-11-23T04:33:15;8.20;;;3.63;;
4047;SDS011;2038;51.728;6.674;2022-11-23T04:35:42;15.17;;;4.13;;
4047;SDS011;2038;51.728;6.674;2022-11-23T04:38:08;16.53;;;4.00;;
4047;SDS011;2038;51.728;6.674;2022-11-23T04:40:34;19.50;;;3.87;;
4047;SDS011;2038;51.728;6.674;2022-11-23T04:43:01;13.17;;;3.37;;
4047;SDS011;2038;51.728;6.674;2022-11-23T04:45:28;13.47;;;3.33;;
4047;SDS011;2038;51.728;6.674;2022-11-23T04:47:54;13.10;;;3.47;;
4047;SDS011;2038;51.728;6.674;2022-11-23T04:50:20;9.23;;;4.07;;
4047;SDS011;2038;51.728;6.674;2022-11-23T04:52:47;10.80;;;3.87;;
4047;SDS011;2038;51.728;6.674;2022-11-23T04:55:13;11.83;;;3.63;;
4047;SDS011;2038;51.728;6.674;2022-11-23T04:57:39;6.90;;;3.07;;
4047;SDS011;2038;51.728;6.674;2022-11-23T05:00:05;13.10;;;3.70;;
4047;SDS011;2038;51.728;6.674;2022-11-23T05:02:32;8.10;;;4.47;;
4047;SDS011;2038;51.728;6.674;2022-11-23T05:04:59;9.13;;;3.90;;
4047;SDS011;2038;51.728;6.674;2022-11-23T05:07:25;9.40;;;3.83;;
4047;SDS011;2038;51.728;6.674;2022-11-23T05:09:51;9.83;;;3.83;;
4047;SDS011;2038;51.728;6.674;2022-11-23T05:12:17;9.57;;;4.07;;
4047;SDS011;2038;51.728;6.674;2022-11-23T05:14:43;14.10;;;3.90;;
4047;SDS011;2038;51.728;6.674;2022-11-23T05:17:10;9.27;;;3.30;;
4047;SDS011;2038;51.728;6.674;2022-11-23T05:19:36;10.13;;;4.53;;
4047;SDS011;2038;51.728;6.674;2022-11-23T05:22:02;12.83;;;4.67;;
4047;SDS011;2038;51.728;6.674;2022-11-23T05:24:28;10.57;;;3.43;;
4047;SDS011;2038;51.728;6.674;2022-11-23T05:26:54;10.70;;;3.80;;
4047;SDS011;2038;51.728;6.674;2022-11-23T05:29:21;7.70;;;4.00;;
4047;SDS011;2038;51.728;6.674;2022-11-23T05:31:47;19.80;;;6.37;;
4047;SDS011;2038;51.728;6.674;2022-11-23T05:34:13;13.77;;;4.30;;
4047;SDS011;2038;51.728;6.674;2022-11-23T05:36:40;7.80;;;3.33;;
4047;SDS011;2038;51.728;6.674;2022-11-23T05:39:06;8.00;;;3.67;;
4047;SDS011;2038;51.728;6.674;2022-11-23T05:41:32;12.50;;;3.90;;
4047;SDS011;2038;51.728;6.674;2022-11-23T05:43:58;9.60;;;3.80;;
4047;SDS011;2038;51.728;6.674;2022-11-23T05:46:25;20.10;;;4.17;;
4047;SDS011;2038;51.728;6.674;2022-11-23T05:48:51;11.20;;;3.50;;
4047;SDS011;2038;51.728;6.674;2022-11-23T05:51:18;13.30;;;4.30;;
4047;SDS011;2038;51.728;6.674;2022-11-23T05:53:44;11.40;;;4.20;;
4047;SDS011;2038;51.728;6.674;2022-11-23T05:56:10;18.27;;;3.87;;
4047;SDS011;2038;51.728;6.674;2022-11-23T05:58:36;9.93;;;4.70;;
4047;SDS011;2038;51.728;6.674;2022-11-23T06:01:03;23.57;;;5.20;;
4047;SDS011;2038;51.728;6.674;2022-11-23T06:03:29;22.27;;;4.70;;
4047;SDS011;2038;51.728;6.674;2022-11-23T06:05:55;14.83;;;4.80;;
4047;SDS011;2038;51.728;6.674;2022-11-23T06:08:21;11.37;;;3.90;;
4047;SDS011;2038;51.728;6.674;2022-11-23T06:10:47;10.37;;;4.17;;
4047;SDS011;2038;51.728;6.674;2022-11-23T06:13:14;11.00;;;4.33;;
4047;SDS011;2038;51.728;6.674;2022-11-23T06:15:40;8.47;;;2.57;;
4047;SDS011;2038;51.728;6.674;2022-11-23T06:18:06;8.07;;;2.97;;
4047;SDS011;2038;51.728;6.674;2022-11-23T06:20:33;26.30;;;4.90;;
4047;SDS011;2038;51.728;6.674;2022-11-23T06:22:59;15.80;;;4.23;;
4047;SDS011;2038;51.728;6.674;2022-11-23T06:25:26;9.67;;;3.70;;
4047;SDS011;2038;51.728;6.674;2022-11-23T06:27:56;16.23;;;5.03;;
4047;SDS011;2038;51.728;6.674;2022-11-23T06:30:24;8.23;;;3.17;;
4047;SDS011;2038;51.728;6.674;2022-11-23T06:32:53;7.93;;;2.70;;
4047;SDS011;2038;51.728;6.674;2022-11-23T06:35:19;14.80;;;3.57;;
4047;SDS011;2038;51.728;6.674;2022-11-23T06:37:48;14.23;;;4.13;;
4047;SDS011;2038;51.728;6.674;2022-11-23T06:40:16;12.63;;;3.67;;
4047;SDS011;2038;51.728;6.674;2022-11-23T06:42:42;12.60;;;3.90;;
4047;SDS011;2038;51.728;6.674;2022-11-23T06:45:08;9.23;;;3.67;;
4047;SDS011;2038;51.728;6.674;2022-11-23T06:47:35;12.13;;;5.40;;
4047;SDS011;2038;51.728;6.674;2022-11-23T06:50:02;13.37;;;6.07;;
4047;SDS011;2038;51.728;6.674;2022-11-23T06:52:29;10.97;;;5.97;;
4047;SDS011;2038;51.728;6.674;2022-11-23T06:54:55;16.60;;;6.90;;
4047;SDS011;2038;51.728;6.674;2022-11-23T06:57:21;22.10;;;6.13;;
4047;SDS011;2038;51.728;6.674;2022-11-23T06:59:48;25.80;;;8.47;;
4047;SDS011;2038;51.728;6.674;2022-11-23T07:02:14;15.50;;;6.43;;
4047;SDS011;2038;51.728;6.674;2022-11-23T07:04:40;16.10;;;5.80;;
4047;SDS011;2038;51.728;6.674;2022-11-23T07:07:07;18.80;;;5.83;;
4047;SDS011;2038;51.728;6.674;2022-11-23T07:09:34;12.43;;;6.37;;
4047;SDS011;2038;51.728;6.674;2022-11-23T07:12:00;12.97;;;5.50;;
4047;SDS011;2038;51.728;6.674;2022-11-23T07:14:26;23.63;;;4.10;;
4047;SDS011;2038;51.728;6.674;2022-11-23T07:16:53;18.40;;;3.67;;
4047;SDS011;2038;51.728;6.674;2022-11-23T07:19:19;15.23;;;3.27;;
4047;SDS011;2038;51.728;6.674;2022-11-23T07:21:45;8.00;;;3.80;;
4047;SDS011;2038;51.728;6.674;2022-11-23T07:24:11;8.10;;;3.93;;
4047;SDS011;2038;51.728;6.674;2022-11-23T07:26:38;11.23;;;3.63;;
4047;SDS011;2038;51.728;6.674;2022-11-23T07:29:04;10.47;;;3.30;;
4047;SDS011;2038;51.728;6.674;2022-11-23T07:31:30;15.33;;;3.87;;
4047;SDS011;2038;51.728;6.674;2022-11-23T07:33:56;7.37;;;2.67;;
4047;SDS011;2038;51.728;6.674;2022-11-23T07:36:23;11.60;;;3.63;;
4047;SDS011;2038;51.728;6.674;2022-11-23T07:38:49;11.97;;;3.37;;
4047;SDS011;2038;51.728;6.674;2022-11-23T07:41:15;11.20;;;3.33;;
4047;SDS011;2038;51.728;6.674;2022-11-23T07:43:41;7.73;;;3.83;;
4047;SDS011;2038;51.728;6.674;2022-11-23T07:46:08;20.93;;;3.40;;
4047;SDS011;2038;51.728;6.674;2022-11-23T07:48:34;17.30;;;3.70;;
4047;SDS011;2038;51.728;6.674;2022-11-23T07:51:00;13.57;;;4.37;;
4047;SDS011;2038;51.728;6.674;2022-11-23T07:53:26;16.13;;;3.73;;
4047;SDS011;2038;51.728;6.674;2022-11-23T07:55:56;12.97;;;5.00;;
4047;SDS011;2038;51.728;6.674;2022-11-23T07:58:22;8.97;;;3.97;;
4047;SDS011;2038;51.728;6.674;2022-11-23T08:00:49;20.00;;;4.30;;
4047;SDS011;2038;51.728;6.674;2022-11-23T08:03:15;11.23;;;4.17;;
4047;SDS011;2038;51.728;6.674;2022-11-23T08:05:42;11.43;;;4.20;;
4047;SDS011;2038;51.728;6.674;2022-11-23T08:08:08;10.37;;;3.93;;
4047;SDS011;2038;51.728;6.674;2022-11-23T08:10:35;16.77;;;4.20;;
4047;SDS011;2038;51.728;6.674;2022-11-23T08:13:03;10.63;;;3.30;;
4047;SDS011;2038;51.728;6.674;2022-11-23T08:15:31;12.00;;;4.30;;
4047;SDS011;2038;51.728;6.674;2022-11-23T08:17:58;9.27;;;4.23;;
4047;SDS011;2038;51.728;6.674;2022-11-23T08:20:27;15.73;;;5.07;;
4047;SDS011;2038;51.728;6.674;2022-11-23T08:22:54;9.67;;;4.60;;
4047;SDS011;2038;51.728;6.674;2022-11-23T08:25:21;11.03;;;4.27;;
4047;SDS011;2038;51.728;6.674;2022-11-23T08:27:53;14.63;;;5.30;;
4047;SDS011;2038;51.728;6.674;2022-11-23T08:30:20;17.40;;;5.70;;
4047;SDS011;2038;51.728;6.674;2022-11-23T08:32:47;9.93;;;4.37;;
4047;SDS011;2038;51.728;6.674;2022-11-23T08:35:13;17.83;;;5.17;;
4047;SDS011;2038;51.728;6.674;2022-11-23T08:37:39;13.53;;;4.07;;
4047;SDS011;2038;51.728;6.674;2022-11-23T08:40:05;19.80;;;5.23;;
4047;SDS011;2038;51.728;6.674;2022-11-23T08:42:32;8.80;;;3.87;;
4047;SDS011;2038;51.728;6.674;2022-11-23T08:44:58;12.10;;;3.80;;
4047;SDS011;2038;51.728;6.674;2022-11-23T08:47:27;12.20;;;4.57;;
4047;SDS011;2038;51.728;6.674;2022-11-23T08:49:54;8.10;;;4.43;;
4047;SDS011;2038;51.728;6.674;2022-11-23T08:52:21;8.60;;;3.40;;
4047;SDS011;2038;51.728;6.674;2022-11-23T08:54:47;5.37;;;3.43;;
4047;SDS011;2038;51.728;6.674;2022-11-23T08:57:14;10.70;;;3.50;;
4047;SDS011;2038;51.728;6.674;2022-11-23T08:59:40;11.10;;;3.93;;
4047;SDS011;2038;51.728;6.674;2022-11-23T09:02:07;8.93;;;3.10;;
4047;SDS011;2038;51.728;6.674;2022-11-23T09:04:36;12.47;;;3.30;;
4047;SDS011;2038;51.728;6.674;2022-11-23T09:07:04;17.57;;;4.80;;
4047;SDS011;2038;51.728;6.674;2022-11-23T09:09:30;10.30;;;2.90;;
4047;SDS011;2038;51.728;6.674;2022-11-23T09:11:56;11.10;;;3.43;;
4047;SDS011;2038;51.728;6.674;2022-11-23T09:14:23;10.70;;;3.00;;
4047;SDS011;2038;51.728;6.674;2022-11-23T09:16:51;11.90;;;3.80;;
4047;SDS011;2038;51.728;6.674;2022-11-23T09:19:20;18.53;;;3.83;;
4047;SDS011;2038;51.728;6.674;2022-11-23T09:21:47;14.93;;;3.50;;
4047;SDS011;2038;51.728;6.674;2022-11-23T09:24:13;6.60;;;2.57;;
4047;SDS011;2038;51.728;6.674;2022-11-23T09:26:39;7.40;;;2.67;;
4047;SDS011;2038;51.728;6.674;2022-11-23T09:29:06;15.73;;;2.90;;
4047;SDS011;2038;51.728;6.674;2022-11-23T09:31:33;14.83;;;2.60;;
4047;SDS011;2038;51.728;6.674;2022-11-23T09:34:00;10.20;;;2.67;;
4047;SDS011;2038;51.728;6.674;2022-11-23T09:36:27;11.27;;;3.37;;
4047;SDS011;2038;51.728;6.674;2022-11-23T09:38:53;6.83;;;2.53;;
4047;SDS011;2038;51.728;6.674;2022-11-23T09:44:01;8.30;;;3.20;;
4047;SDS011;2038;51.728;6.674;2022-11-23T09:47:05;11.83;;;4.30;;
4047;SDS011;2038;51.728;6.674;2022-11-23T09:52:53;13.20;;;5.53;;
4047;SDS011;2038;51.728;6.674;2022-11-23T09:55:21;11.57;;;3.50;;
4047;SDS011;2038;51.728;6.674;2022-11-23T09:58:06;11.33;;;3.13;;
4047;SDS011;2038;51.728;6.674;2022-11-23T10:00:46;24.07;;;4.70;;
4047;SDS011;2038;51.728;6.674;2022-11-23T10:03:37;8.87;;;2.93;;
4047;SDS011;2038;51.728;6.674;2022-11-23T10:06:22;9.30;;;3.70;;
4047;SDS011;2038;51.728;6.674;2022-11-23T10:09:04;9.20;;;2.57;;
4047;SDS011;2038;51.728;6.674;2022-11-23T10:26:03;7.57;;;2.73;;
4047;SDS011;2038;51.728;6.674;2022-11-23T10:28:36;10.07;;;3.33;;
4047;SDS011;2038;51.728;6.674;2022-11-23T10:33:58;11.07;;;3.93;;
4047;SDS011;2038;51.728;6.674;2022-11-23T10:36:34;13.43;;;3.50;;
4047;SDS011;2038;51.728;6.674;2022-11-23T10:39:08;5.83;;;3.03;;
4047;SDS011;2038;51.728;6.674;2022-11-23T10:41:46;15.43;;;4.53;;
4047;SDS011;2038;51.728;6.674;2022-11-23T10:47:06;11.10;;;4.37;;
4047;SDS011;2038;51.728;6.674;2022-11-23T10:49:33;12.00;;;5.30;;
4047;SDS011;2038;51.728;6.674;2022-11-23T10:52:04;16.03;;;4.30;;
4047;SDS011;2038;51.728;6.674;2022-11-23T10:54:55;17.50;;;4.50;;
4047;SDS011;2038;51.728;6.674;2022-11-23T10:57:41;10.83;;;4.97;;
4047;SDS011;2038;51.728;6.674;2022-11-23T11:02:39;13.33;;;3.83;;
4047;SDS011;2038;51.728;6.674;2022-11-23T11:08:15;11.90;;;3.80;;
4047;SDS011;2038;51.728;6.674;2022-11-23T11:10:45;13.93;;;4.13;;
4047;SDS011;2038;51.728;6.674;2022-11-23T11:13:23;10.03;;;3.30;;
4047;SDS011;2038;51.728;6.674;2022-11-23T11:18:31;16.63;;;5.03;;
4047;SDS011;2038;51.728;6.674;2022-11-23T11:21:02;7.77;;;3.23;;
4047;SDS011;2038;51.728;6.674;2022-11-23T11:23:30;10.73;;;3.50;;
4047;SDS011;2038;51.728;6.674;2022-11-23T11:26:24;13.27;;;3.50;;
4047;SDS011;2038;51.728;6.674;2022-11-23T11:28:52;11.30;;;3.77;;
4047;SDS011;2038;51.728;6.674;2022-11-23T11:34:22;13.50;;;4.00;;
4047;SDS011;2038;51.728;6.674;2022-11-23T11:37:19;23.23;;;4.50;;
4047;SDS011;2038;51.728;6.674;2022-11-23T11:40:17;16.50;;;4.50;;
4047;SDS011;2038;51.728;6.674;2022-11-23T11:43:07;14.67;;;4.40;;
4047;SDS011;2038;51.728;6.674;2022-11-23T11:45:56;19.10;;;8.13;;
4047;SDS011;2038;51.728;6.674;2022-11-23T11:48:27;12.13;;;6.57;;
4047;SDS011;2038;51.728;6.674;2022-11-23T11:51:09;20.13;;;10.23;;
4047;SDS011;2038;51.728;6.674;2022-11-23T11:54:02;13.53;;;6.70;;
4047;SDS011;2038;51.728;6.674;2022-11-23T11:57:01;20.13;;;5.10;;
4047;SDS011;2038;51.728;6.674;2022-11-23T11:59:49;16.17;;;5.67;;
4047;SDS011;2038;51.728;6.674;2022-11-23T12:02:33;11.00;;;4.23;;
4047;SDS011;2038;51.728;6.674;2022-11-23T12:05:17;11.10;;;4.27;;
4047;SDS011;2038;51.728;6.674;2022-11-23T12:08:12;16.53;;;3.87;;
4047;SDS011;2038;51.728;6.674;2022-11-23T12:10:53;7.13;;;3.30;;
4047;SDS011;2038;51.728;6.674;2022-11-23T12:13:27;16.23;;;3.37;;
4047;SDS011;2038;51.728;6.674;2022-11-23T12:19:18;14.63;;;3.10;;
4047;SDS011;2038;51.728;6.674;2022-11-23T12:22:04;18.10;;;3.53;;
4047;SDS011;2038;51.728;6.674;2022-11-23T12:30:56;9.13;;;3.30;;
4047;SDS011;2038;51.728;6.674;2022-11-23T12:33:36;8.17;;;2.80;;
4047;SDS011;2038;51.728;6.674;2022-11-23T12:36:44;6.33;;;2.83;;
4047;SDS011;2038;51.728;6.674;2022-11-23T12:42:45;10.77;;;2.97;;
4047;SDS011;2038;51.728;6.674;2022-11-23T12:45:28;9.80;;;3.00;;
4047;SDS011;2038;51.728;6.674;2022-11-23T12:48:43;10.40;;;3.47;;
4047;SDS011;2038;51.728;6.674;2022-11-23T12:51:48;7.27;;;3.13;;
4047;SDS011;2038;51.728;6.674;2022-11-23T12:54:55;18.77;;;3.13;;
4047;SDS011;2038;51.728;6.674;2022-11-23T12:57:37;10.33;;;2.80;;
4047;SDS011;2038;51.728;6.674;2022-11-23T13:00:16;5.63;;;2.70;;
4047;SDS011;2038;51.728;6.674;2022-11-23T13:06:22;8.73;;;3.47;;
4047;SDS011;2038;51.728;6.674;2022-11-23T13:08:48;9.10;;;2.10;;
4047;SDS011;2038;51.728;6.674;2022-11-23T13:11:47;7.27;;;3.00;;
4047;SDS011;2038;51.728;6.674;2022-11-23T13:21:21;8.53;;;2.77;;
4047;SDS011;2038;51.728;6.674;2022-11-23T13:24:03;5.07;;;2.60;;
4047;SDS011;2038;51.728;6.674;2022-11-23T13:27:00;3.60;;;2.33;;
4047;SDS011;2038;51.728;6.674;2022-11-23T13:35:19;9.60;;;2.47;;
4047;SDS011;2038;51.728;6.674;2022-11-23T13:40:21;6.63;;;2.10;;
4047;SDS011;2038;51.728;6.674;2022-11-23T13:42:53;9.07;;;2.50;;
4047;SDS011;2038;51.728;6.674;2022-11-23T13:45:38;9.67;;;2.57;;
4047;SDS011;2038;51.728;6.674;2022-11-23T13:50:35;9.20;;;2.30;;
4047;SDS011;2038;51.728;6.674;2022-11-23T13:53:45;7.33;;;2.30;;
4047;SDS011;2038;51.728;6.674;2022-11-23T13:56:17;3.87;;;2.03;;
4047;SDS011;2038;51.728;6.674;2022-11-23T13:59:22;6.03;;;3.20;;
4047;SDS011;2038;51.728;6.674;2022-11-23T14:04:32;6.50;;;2.13;;
4047;SDS011;2038;51.728;6.674;2022-11-23T14:07:18;7.10;;;2.70;;
4047;SDS011;2038;51.728;6.674;2022-11-23T14:09:56;7.67;;;2.80;;
4047;SDS011;2038;51.728;6.674;2022-11-23T14:12:33;5.20;;;1.60;;
4047;SDS011;2038;51.728;6.674;2022-11-23T14:15:22;9.50;;;1.97;;
4047;SDS011;2038;51.728;6.674;2022-11-23T14:24:16;12.17;;;2.00;;
4047;SDS011;2038;51.728;6.674;2022-11-23T14:27:04;8.43;;;2.20;;
4047;SDS011;2038;51.728;6.674;2022-11-23T14:30:33;6.57;;;2.77;;
4047;SDS011;2038;51.728;6.674;2022-11-23T14:33:46;3.97;;;2.77;;
4047;SDS011;2038;51.728;6.674;2022-11-23T14:36:58;7.10;;;3.07;;
4047;SDS011;2038;51.728;6.674;2022-11-23T14:40:02;13.00;;;4.50;;
4047;SDS011;2038;51.728;6.674;2022-11-23T14:42:55;9.33;;;2.73;;
4047;SDS011;2038;51.728;6.674;2022-11-23T14:45:22;5.73;;;2.90;;
4047;SDS011;2038;51.728;6.674;2022-11-23T14:47:55;6.50;;;2.40;;
4047;SDS011;2038;51.728;6.674;2022-11-23T14:52:53;4.70;;;2.87;;
4047;SDS011;2038;51.728;6.674;2022-11-23T14:55:34;6.13;;;2.87;;
4047;SDS011;2038;51.728;6.674;2022-11-23T14:58:01;6.03;;;2.40;;
4047;SDS011;2038;51.728;6.674;2022-11-23T15:03:17;6.03;;;2.20;;
4047;SDS011;2038;51.728;6.674;2022-11-23T15:05:52;5.13;;;2.40;;
4047;SDS011;2038;51.728;6.674;2022-11-23T15:11:18;4.20;;;2.07;;
4047;SDS011;2038;51.728;6.674;2022-11-23T15:13:52;6.23;;;3.50;;
4047;SDS011;2038;51.728;6.674;2022-11-23T15:16:21;4.37;;;2.80;;
4047;SDS011;2038;51.728;6.674;2022-11-23T15:18:47;8.57;;;2.27;;
4047;SDS011;2038;51.728;6.674;2022-11-23T15:21:18;4.83;;;2.33;;
4047;SDS011;2038;51.728;6.674;2022-11-23T15:23:50;7.53;;;3.40;;
4047;SDS011;2038;51.728;6.674;2022-11-23T15:26:20;7.80;;;3.10;;
4047;SDS011;2038;51.728;6.674;2022-11-23T15:28:48;6.00;;;2.60;;
4047;SDS011;2038;51.728;6.674;2022-11-23T15:31:18;7.70;;;3.10;;
4047;SDS011;2038;51.728;6.674;2022-11-23T15:34:01;10.43;;;3.30;;
4047;SDS011;2038;51.728;6.674;2022-11-23T15:36:37;5.83;;;2.87;;
4047;SDS011;2038;51.728;6.674;2022-11-23T15:39:05;7.47;;;3.20;;
4047;SDS011;2038;51.728;6.674;2022-11-23T15:41:41;10.60;;;3.07;;
4047;SDS011;2038;51.728;6.674;2022-11-23T15:44:16;4.87;;;3.33;;
4047;SDS011;2038;51.728;6.674;2022-11-23T15:46:58;6.20;;;4.00;;
4047;SDS011;2038;51.728;6.674;2022-11-23T15:49:35;11.10;;;5.03;;
4047;SDS011;2038;51.728;6.674;2022-11-23T15:52:03;13.47;;;6.10;;
4047;SDS011;2038;51.728;6.674;2022-11-23T15:54:33;25.10;;;7.93;;
4047;SDS011;2038;51.728;6.674;2022-11-23T15:57:05;53.43;;;16.80;;
4047;SDS011;2038;51.728;6.674;2022-11-23T16:02:15;8.50;;;4.30;;
4047;SDS011;2038;51.728;6.674;2022-11-23T16:04:49;27.13;;;11.40;;
4047;SDS011;2038;51.728;6.674;2022-11-23T16:07:56;11.53;;;3.93;;
4047;SDS011;2038;51.728;6.674;2022-11-23T16:10:26;17.90;;;6.20;;
4047;SDS011;2038;51.728;6.674;2022-11-23T16:12:54;7.97;;;5.13;;
4047;SDS011;2038;51.728;6.674;2022-11-23T16:18:05;7.67;;;4.40;;
4047;SDS011;2038;51.728;6.674;2022-11-23T16:20:56;5.43;;;3.53;;
4047;SDS011;2038;51.728;6.674;2022-11-23T16:26:08;8.20;;;3.77;;
4047;SDS011;2038;51.728;6.674;2022-11-23T16:28:37;7.63;;;4.10;;
4047;SDS011;2038;51.728;6.674;2022-11-23T16:31:35;9.87;;;4.10;;
4047;SDS011;2038;51.728;6.674;2022-11-23T16:34:12;22.87;;;9.07;;
4047;SDS011;2038;51.728;6.674;2022-11-23T16:36:42;9.07;;;4.67;;
4047;SDS011;2038;51.728;6.674;2022-11-23T16:39:09;11.90;;;5.80;;
4047;SDS011;2038;51.728;6.674;2022-11-23T16:41:35;14.00;;;6.37;;
4047;SDS011;2038;51.728;6.674;2022-11-23T16:44:02;21.07;;;13.10;;
4047;SDS011;2038;51.728;6.674;2022-11-23T16:46:30;18.90;;;11.43;;
4047;SDS011;2038;51.728;6.674;2022-11-23T16:48:56;15.80;;;8.50;;
4047;SDS011;2038;51.728;6.674;2022-11-23T16:51:23;11.57;;;6.33;;
4047;SDS011;2038;51.728;6.674;2022-11-23T16:53:50;10.03;;;7.40;;
4047;SDS011;2038;51.728;6.674;2022-11-23T16:56:20;8.90;;;6.10;;
4047;SDS011;2038;51.728;6.674;2022-11-23T16:58:50;13.67;;;6.40;;
4047;SDS011;2038;51.728;6.674;2022-11-23T17:01:21;17.63;;;7.93;;
4047;SDS011;2038;51.728;6.674;2022-11-23T17:03:53;18.03;;;8.00;;
4047;SDS011;2038;51.728;6.674;2022-11-23T17:06:20;8.00;;;5.07;;
4047;SDS011;2038;51.728;6.674;2022-11-23T17:08:50;8.77;;;6.00;;
4047;SDS011;2038;51.728;6.674;2022-11-23T17:11:22;12.73;;;7.00;;
4047;SDS011;2038;51.728;6.674;2022-11-23T17:13:50;14.37;;;8.00;;
4047;SDS011;2038;51.728;6.674;2022-11-23T17:16:20;35.13;;;21.67;;
4047;SDS011;2038;51.728;6.674;2022-11-23T17:18:49;23.60;;;14.67;;